Latest Weather Observations for Pallamana

IDS60801

Issued at 9:21 am CDT Monday 17 February 2020 (issued every 10 minutes, with the page automatically refreshed every 10 minutes)

About weather observations | Map of weather stations | Latest weather observations for SA | Other Formats
Station Details ID: 024584 Name: PALLAMANA AERODROME Lat: -35.06 Lon: 139.23 Height: 45.0 m
Data from the previous 72 hours. | See also: Recent months at Pallamana
Date/Time
CDT
Temp
°C
App
Temp
°C
Dew
Point
°C
Rel
Hum
%
Delta-T
°C
Wind Press
QNH
hPa
Press
MSL
hPa
Rain since
9am
mm
Dir  Spd
km/h
Gust
km/h
Spd
kts
Gust
kts
17/09:00am 17.8 16.9 12.6 71 2.9 SW 9 15 5 8 1014.1 1013.9 0.0
17/08:42am 17.6 17.8 13.0 74 2.6 SSE 4 9 2 5 1013.6 1013.4 0.0
17/08:30am 17.1 16.3 13.0 77 2.3 S 9 13 5 7 1013.7 1013.5 0.0
17/08:00am 16.3 14.6 12.5 78 2.1 SW 13 17 7 9 1013.9 1013.7 0.0
17/07:30am 16.0 14.3 12.6 80 1.9 SW 13 17 7 9 1014.0 1013.8 0.0
17/07:00am 15.8 14.4 12.3 80 1.9 SSW 11 13 6 7 1013.4 1013.2 0.0
17/06:30am 15.7 14.8 12.6 82 1.7 S 9 13 5 7 1013.1 1012.9 0.0
17/06:00am 15.8 14.9 12.5 81 1.8 SW 9 11 5 6 1012.7 1012.5 0.0
17/05:30am 15.8 15.3 12.5 81 1.8 SSW 7 11 4 6 1012.6 1012.4 0.0
17/05:00am 15.7 14.8 12.6 82 1.7 SSW 9 13 5 7 1012.7 1012.5 0.0
17/04:30am 15.9 14.2 12.4 80 1.9 WSW 13 15 7 8 1012.9 1012.7 0.0
17/04:00am 15.8 14.6 12.7 82 1.7 SW 11 15 6 8 1012.7 1012.5 0.0
17/03:30am 15.7 14.8 12.6 82 1.7 SW 9 17 5 9 1012.7 1012.5 0.0
17/03:00am 15.9 14.2 12.6 81 1.8 SW 13 17 7 9 1012.9 1012.7 0.0
17/02:30am 15.7 14.0 12.6 82 1.7 SW 13 17 7 9 1013.1 1012.9 0.0
17/02:00am 15.5 13.8 12.4 82 1.7 SW 13 15 7 8 1013.3 1013.1 0.0
17/01:30am 15.7 14.4 12.4 81 1.8 SW 11 15 6 8 1013.5 1013.3 0.0
17/01:00am 15.2 13.4 12.1 82 1.7 SW 13 15 7 8 1013.8 1013.6 0.0
17/12:56am 15.1 13.3 12.2 83 1.6 SW 13 15 7 8 1013.7 1013.5 0.0
17/12:30am 14.0 12.3 11.2 83 1.5 W 11 15 6 8 1013.8 1013.6 0.0
17/12:00am 13.5 11.7 10.8 84 1.4 W 11 15 6 8 1014.1 1013.9 0.0
 
Date/Time
CDT
Temp
°C
App
Temp
°C
Dew
Point
°C
Rel
Hum
%
Delta-T
°C
Wind Press
QNH
hPa
Press
MSL
hPa
Rain since
9am
mm
Dir  Spd
km/h
Gust
km/h
Spd
kts
Gust
kts
16/11:30pm 13.5 11.2 10.6 82 1.5 WSW 13 15 7 8 1014.3 1014.1 0.0
16/11:00pm 13.6 11.4 10.7 82 1.5 WSW 13 15 7 8 1014.6 1014.4 0.0
16/10:30pm 14.0 11.8 10.8 81 1.7 WSW 13 13 7 7 1014.8 1014.6 0.0
16/10:00pm 14.0 12.1 10.6 80 1.8 SW 11 13 6 7 1014.8 1014.6 0.0
16/09:30pm 14.9 12.7 10.7 76 2.2 SW 13 15 7 8 1014.5 1014.3 0.0
16/09:00pm 15.8 13.3 10.9 72 2.6 SSW 15 20 8 11 1014.4 1014.2 0.0
16/08:30pm 16.6 13.1 11.0 69 3.0 SSW 20 28 11 15 1014.4 1014.2 0.0
16/08:00pm 17.3 13.8 11.0 66 3.4 SSW 20 26 11 14 1014.2 1014.0 0.0
16/07:30pm 18.6 15.0 10.4 59 4.4 SSW 20 28 11 15 1013.7 1013.5 0.0
16/07:00pm 19.5 15.2 10.7 56 4.8 S 24 30 13 16 1013.6 1013.4 0.0
16/06:30pm 19.9 15.8 10.0 53 5.3 SSW 22 30 12 16 1013.6 1013.4 0.0
16/06:00pm 20.7 16.2 10.2 51 5.7 SSW 24 33 13 18 1013.3 1013.1 0.0
16/05:30pm 21.3 16.7 9.8 48 6.2 SSW 24 37 13 20 1013.3 1013.1 0.0
16/05:00pm 22.0 17.6 10.3 47 6.4 SSW 24 35 13 19 1013.3 1013.1 0.0
16/04:30pm 22.6 18.2 10.4 46 6.7 S 24 33 13 18 1013.5 1013.3 0.0
16/04:00pm 22.6 18.2 10.4 46 6.7 S 24 37 13 20 1013.5 1013.3 0.0
16/03:30pm 22.9 19.2 10.1 44 7.0 S 20 35 11 19 1013.7 1013.5 0.0
16/03:00pm 21.8 17.5 10.7 49 6.1 S 24 35 13 19 1014.0 1013.8 0.0
16/02:30pm 21.8 17.3 11.4 51 5.8 SSW 26 39 14 21 1014.4 1014.2 0.0
16/02:00pm 21.4 17.5 12.0 55 5.3 SSW 24 35 13 19 1014.7 1014.5 0.0
16/01:30pm 21.3 17.9 11.4 53 5.5 SSW 20 33 11 18 1014.7 1014.5 0.0
16/01:00pm 20.7 18.2 11.1 54 5.3 SW 15 26 8 14 1014.9 1014.7 0.0
16/12:30pm 19.5 17.0 11.1 58 4.6 SW 15 22 8 12 1015.4 1015.2 0.0
16/12:00pm 19.7 17.8 11.8 60 4.4 SSW 13 32 7 17 1015.4 1015.2 0.0
16/11:30am 18.3 14.0 12.0 66 3.5 SSW 26 33 14 18 1015.8 1015.6 0.0
16/11:00am 18.9 15.8 11.6 62 4.0 SW 19 32 10 17 1015.9 1015.7 0.0
16/10:30am 17.6 14.9 11.6 68 3.3 SW 17 20 9 11 1016.0 1015.8 0.0
16/10:00am 17.5 15.0 12.3 71 2.9 SSW 17 24 9 13 1015.9 1015.7 0.0
16/09:30am 17.1 14.9 12.2 73 2.7 SSW 15 22 8 12 1016.1 1015.9 0.0
16/09:00am 16.4 15.1 12.6 78 2.1 SSE 11 15 6 8 1015.7 1015.5 0.0
16/08:30am 16.3 14.7 12.7 79 2.0 SSE 13 17 7 9 1015.7 1015.5 0.0
16/08:00am 16.2 14.7 13.0 81 1.8 SSE 13 17 7 9 1015.6 1015.4 0.0
16/07:36am 16.2 14.6 12.8 80 1.9 SSE 13 15 7 8 1015.2 1015.0 0.0
16/07:30am 16.2 14.6 12.8 80 1.9 SSE 13 15 7 8 1015.2 1015.0 0.0
16/07:02am 16.3 14.7 12.9 80 1.9 SE 13 15 7 8 1014.9 1014.7 0.0
16/07:00am 16.3 15.1 12.9 80 1.9 SE 11 15 6 8 1014.9 1014.7 0.0
16/06:30am 16.5 15.8 13.1 80 1.9 SSE 9 11 5 6 1014.5 1014.3 0.0
16/06:00am 16.6 15.5 13.2 80 1.9 SSE 11 15 6 8 1014.1 1013.9 0.0
16/05:30am 16.8 15.8 13.4 80 1.9 S 11 15 6 8 1014.2 1014.0 0.0
16/05:00am 16.9 15.4 13.2 79 2.1 S 13 15 7 8 1014.0 1013.8 0.0
16/04:30am 16.9 15.2 13.5 80 1.9 SSE 15 20 8 11 1013.8 1013.6 0.0
16/04:00am 17.1 15.5 13.8 81 1.9 S 15 20 8 11 1013.8 1013.6 0.0
16/03:30am 17.1 15.5 13.9 81 1.8 S 15 20 8 11 1013.8 1013.6 0.0
16/03:00am 17.3 15.7 14.0 81 1.9 S 15 20 8 11 1014.0 1013.8 0.0
16/02:30am 17.2 15.4 14.4 83 1.6 SSW 17 20 9 11 1014.2 1014.0 0.0
16/02:00am 17.1 14.8 14.1 82 1.7 SSW 19 26 10 14 1014.4 1014.2 0.0
16/01:30am 17.3 14.0 14.0 81 1.9 SSW 24 32 13 17 1015.0 1014.8 0.0
16/01:00am 17.3 14.0 14.0 81 1.9 SSW 24 30 13 16 1015.0 1014.8 0.0
16/12:30am 17.2 14.4 14.2 82 1.7 SSW 22 30 12 16 1015.1 1014.9 0.0
16/12:00am 17.4 13.7 13.9 80 2.0 SSW 26 32 14 17 1015.3 1015.1 0.0
 
Date/Time
CDT
Temp
°C
App
Temp
°C
Dew
Point
°C
Rel
Hum
%
Delta-T
°C
Wind Press
QNH
hPa
Press
MSL
hPa
Rain since
9am
mm
Dir  Spd
km/h
Gust
km/h
Spd
kts
Gust
kts
15/11:30pm 17.7 14.6 14.4 81 1.9 SSW 24 32 13 17 1015.5 1015.3 0.0
15/11:06pm 17.7 14.6 14.4 81 1.9 SSW 24 30 13 16 1015.8 1015.6 0.0
15/11:00pm 17.7 14.6 14.4 81 1.9 SSW 24 30 13 16 1015.8 1015.6 0.0
15/10:30pm 17.6 14.2 14.7 83 1.7 SW 26 32 14 17 1016.0 1015.8 0.0
15/10:00pm 17.6 14.9 14.5 82 1.8 SSW 22 33 12 18 1015.9 1015.7 0.0
15/09:30pm 17.6 13.3 14.5 82 1.8 SSW 30 39 16 21 1015.6 1015.4 0.0
15/09:00pm 17.7 14.6 14.6 82 1.8 SSW 24 33 13 18 1015.1 1014.9 0.0
15/08:30pm 17.8 13.5 14.5 81 1.9 SSW 30 39 16 21 1015.0 1014.8 0.0
15/08:25pm 17.8 13.5 14.5 81 1.9 SSW 30 39 16 21 1014.9 1014.7 0.0
15/08:00pm 18.4 14.4 14.2 76 2.4 SSW 28 39 15 21 1014.7 1014.5 0.0
15/07:30pm 18.6 14.8 14.6 77 2.3 SSW 28 35 15 19 1014.3 1014.1 0.0
15/07:00pm 19.1 15.2 14.3 73 2.8 SSW 28 37 15 20 1014.3 1014.1 0.0
15/06:30pm 19.9 15.4 13.8 68 3.5 SSW 30 37 16 20 1014.0 1013.8 0.0
15/06:00pm 20.2 15.8 14.0 67 3.6 SSW 30 37 16 20 1014.0 1013.8 0.0
15/05:30pm 20.9 16.0 14.2 65 3.9 SSW 33 41 18 22 1014.0 1013.8 0.0
15/05:00pm 20.9 15.7 14.4 66 3.8 SSW 35 43 19 23 1014.0 1013.8 0.0
15/04:30pm 20.5 16.6 14.3 67 3.6 S 28 39 15 21 1014.0 1013.8 0.0
15/04:00pm 20.8 16.9 14.3 66 3.8 S 28 35 15 19 1014.2 1014.0 0.0
15/03:30pm 20.8 16.0 14.1 65 3.9 SSW 32 41 17 22 1014.2 1014.0 0.0
15/03:00pm 21.0 16.7 14.3 65 3.9 SSW 30 41 16 22 1014.4 1014.2 0.0
15/02:30pm 20.5 15.8 14.3 67 3.6 SSW 32 43 17 23 1014.4 1014.2 0.0
15/02:00pm 20.8 16.1 14.3 66 3.8 SSW 32 41 17 22 1014.6 1014.4 0.0
15/01:30pm 20.9 16.3 14.6 67 3.7 SSW 32 43 17 23 1014.5 1014.3 0.0
15/01:00pm 21.9 17.7 14.6 63 4.3 S 30 39 16 21 1014.5 1014.3 0.0
15/12:30pm 21.9 17.7 14.6 63 4.3 SSW 30 39 16 21 1014.5 1014.3 0.0
15/12:00pm 21.4 17.1 15.5 69 3.5 S 32 39 17 21 1014.6 1014.4 0.0
15/11:59am 20.7 16.3 15.1 70 3.3 S 32 39 17 21 1014.6 1014.4 0.0
15/11:30am 19.4 16.0 15.7 79 2.2 S 28 41 15 22 1014.9 1014.7 0.0
15/11:00am 18.5 15.3 16.2 86 1.4 S 28 37 15 20 1015.0 1014.8 0.0
15/10:30am 17.7 14.8 16.0 90 1.0 S 26 37 14 20 1015.1 1014.9 0.0
15/10:00am 17.4 15.2 16.0 91 0.8 SSW 22 32 12 17 1015.1 1014.9 0.0
15/09:36am 17.4 14.9 16.2 93 0.7 S 24 33 13 18 1015.0 1014.8 0.0
15/09:30am 17.4 14.9 16.2 93 0.7 S 24 33 13 18 1015.0 1014.8 0.0
15/09:13am 17.2 14.3 16.0 93 0.7 SSW 26 37 14 20 1014.9 1014.7 0.0
15/09:08am 17.2 14.6 16.0 93 0.7 SSW 24 33 13 18 1014.9 1014.7 0.0
15/09:00am 17.0 14.4 16.0 94 0.6 SSW 24 33 13 18 1014.9 1014.7 0.2
15/08:44am 16.9 14.4 16.1 95 0.5 SSW 24 32 13 17 1014.6 1014.4 0.2
15/08:39am 17.0 14.1 16.2 95 0.5 SSW 26 37 14 20 1014.6 1014.4 0.2
15/08:30am 16.9 14.7 15.9 94 0.6 SSW 22 32 12 17 1014.6 1014.4 0.2
15/08:22am 17.0 15.2 16.0 94 0.6 SSW 20 28 11 15 1014.5 1014.3 0.2
15/08:12am 16.7 14.8 15.7 94 0.6 S 20 30 11 16 1014.5 1014.3 0.2
15/08:00am 16.7 14.8 15.7 94 0.6 S 20 28 11 15 1014.4 1014.2 0.2
15/07:44am 16.6 14.3 15.7 94 0.5 S 22 33 12 18 1014.2 1014.0 0.2
15/07:30am 16.6 14.9 15.7 94 0.5 S 19 28 10 15 1014.0 1013.8 0.2
15/07:23am 16.7 14.9 15.9 95 0.5 S 20 32 11 17 1013.9 1013.7 0.2
15/07:00am 16.6 14.3 15.7 94 0.5 SSW 22 30 12 16 1013.6 1013.4 0.2
15/06:53am 16.6 14.3 15.7 94 0.5 S 22 32 12 17 1013.5 1013.3 0.2
15/06:50am 16.6 14.3 15.7 94 0.5 S 22 32 12 17 1013.5 1013.3 0.2
15/06:30am 16.6 13.9 15.7 94 0.5 SSW 24 33 13 18 1013.2 1013.0 0.0
15/06:00am 16.7 14.5 15.9 95 0.5 SSW 22 33 12 18 1012.8 1012.6 0.0
15/05:42am 16.8 14.2 16.0 95 0.5 SSW 24 30 13 16 1012.6 1012.4 0.0
15/05:30am 16.8 14.2 16.0 95 0.5 SSW 24 33 13 18 1012.5 1012.3 0.0
15/05:00am 16.9 14.0 16.1 95 0.5 SSW 26 35 14 19 1012.2 1012.0 0.0
15/04:58am 17.0 14.1 16.0 94 0.6 SSW 26 33 14 18 1012.2 1012.0 0.0
15/04:32am 17.0 14.4 16.0 94 0.6 SSW 24 33 13 18 1012.0 1011.8 0.0
15/04:30am 17.0 14.1 16.0 94 0.6 SSW 26 33 14 18 1012.1 1011.9 0.0
15/04:00am 17.1 14.1 15.9 93 0.7 SSW 26 35 14 19 1011.8 1011.6 0.0
15/03:32am 16.9 14.6 15.7 93 0.7 SSW 22 28 12 15 1011.7 1011.5 0.0
15/03:30am 16.8 14.5 15.8 94 0.6 SSW 22 30 12 16 1011.7 1011.5 0.0
15/03:09am 16.8 14.9 15.8 94 0.6 SSW 20 30 11 16 1011.8 1011.6 0.0
15/03:00am 16.9 15.0 15.7 93 0.7 SSW 20 33 11 18 1011.8 1011.6 0.0
15/02:30am 16.9 13.5 15.7 93 0.7 SSW 28 35 15 19 1011.8 1011.6 0.0
15/02:15am 17.0 14.4 16.0 94 0.6 SSW 24 32 13 17 1011.8 1011.6 0.0
15/02:00am 17.0 14.9 16.2 95 0.5 SSW 22 35 12 19 1011.9 1011.7 0.0
15/01:54am 17.1 15.0 16.1 94 0.6 SSW 22 30 12 16 1012.0 1011.8 0.0
15/01:33am 17.1 14.1 15.9 93 0.7 SSW 26 37 14 20 1012.0 1011.8 0.0
15/01:30am 17.1 14.6 16.1 94 0.6 SSW 24 32 13 17 1012.0 1011.8 0.0
15/01:10am 17.3 15.5 16.1 93 0.7 SSW 20 28 11 15 1012.2 1012.0 0.0
15/01:04am 17.3 15.6 16.3 94 0.6 SSW 20 28 11 15 1012.2 1012.0 0.0
15/01:00am 17.3 15.2 16.1 93 0.7 SSW 22 32 12 17 1012.3 1012.1 0.0
15/12:45am 17.3 15.2 16.3 94 0.6 SW 22 28 12 15 1012.2 1012.0 0.0
15/12:30am 17.4 15.3 16.2 93 0.7 SSW 22 30 12 16 1012.1 1011.9 0.0
15/12:00am 17.6 16.0 16.6 94 0.6 SW 20 26 11 14 1012.2 1012.0 0.0
 
Date/Time
CDT
Temp
°C
App
Temp
°C
Dew
Point
°C
Rel
Hum
%
Delta-T
°C
Wind Press
QNH
hPa
Press
MSL
hPa
Rain since
9am
mm
Dir  Spd
km/h
Gust
km/h
Spd
kts
Gust
kts
14/11:53pm 17.6 15.2 16.4 93 0.7 SSW 24 32 13 17 1012.2 1012.0 0.0
14/11:32pm 17.6 14.9 16.6 94 0.6 SSW 26 32 14 17 1012.1 1011.9 0.0
14/11:30pm 17.7 15.4 16.7 94 0.6 SSW 24 32 13 17 1012.1 1011.9 0.0
14/11:26pm 17.6 14.9 16.6 94 0.6 SSW 26 35 14 19 1012.1 1011.9 0.0
14/11:00pm 17.6 15.3 16.6 94 0.6 SW 24 32 13 17 1012.2 1012.0 0.0
14/10:50pm 17.7 15.8 16.7 94 0.6 SSW 22 30 12 16 1012.3 1012.1 0.0
14/10:48pm 17.7 15.8 16.7 94 0.6 SSW 22 32 12 17 1012.2 1012.0 0.0
14/10:30pm 17.8 15.1 16.6 93 0.7 SSW 26 33 14 18 1012.2 1012.0 0.0
14/10:29pm 17.7 15.0 16.7 94 0.6 SSW 26 33 14 18 1012.1 1011.9 0.0
14/10:19pm 17.9 14.8 16.6 92 0.8 SSW 28 35 15 19 1012.0 1011.8 0.0
14/10:00pm 18.2 16.7 16.7 91 0.9 SSW 20 28 11 15 1012.0 1011.8 0.0
14/09:57pm 18.4 16.8 16.6 89 1.1 SSW 20 28 11 15 1012.0 1011.8 0.0
14/09:30pm 18.3 15.8 16.1 87 1.3 SSW 24 32 13 17 1011.5 1011.3 0.0
14/09:00pm 18.1 15.0 16.6 91 0.9 SSW 28 35 15 19 1011.1 1011.0 0.0
14/08:55pm 18.2 15.5 16.7 91 0.9 SW 26 32 14 17 1011.1 1011.0 0.0
14/08:35pm 18.4 14.9 16.6 89 1.1 SW 30 39 16 21 1010.8 1010.7 0.0
14/08:30pm 18.5 14.5 16.3 87 1.3 SSW 32 39 17 21 1010.7 1010.6 0.0
14/08:08pm 19.0 14.8 15.8 82 1.9 SSW 32 41 17 22 1010.5 1010.4 0.0
14/08:00pm 19.2 15.0 15.7 80 2.1 SW 32 41 17 22 1010.4 1010.3 0.0
14/07:30pm 19.8 15.4 15.6 77 2.5 SSW 33 41 18 22 1010.3 1010.2 0.0
14/07:00pm 20.2 15.7 15.5 74 2.8 SSW 33 43 18 23 1010.0 1009.9 0.0
14/06:30pm 20.9 16.3 15.2 70 3.4 SW 33 46 18 25 1009.6 1009.5 0.0
14/06:00pm 20.9 16.0 15.4 71 3.3 SSW 35 46 19 25 1009.3 1009.2 0.0
14/05:30pm 21.4 16.5 15.4 68 3.6 SSW 35 46 19 25 1008.9 1008.8 0.0
14/05:00pm 21.5 16.7 15.7 69 3.5 SSW 35 43 19 23 1008.9 1008.8 0.0
14/04:30pm 23.0 18.2 15.7 63 4.4 SW 35 48 19 26 1008.7 1008.6 0.0
14/04:00pm 24.0 17.5 15.6 59 5.1 SSW 44 57 24 31 1008.6 1008.5 0.0
14/03:30pm 24.2 18.3 15.6 58 5.2 SSW 41 52 22 28 1008.9 1008.8 0.0
14/03:00pm 24.9 19.1 16.1 58 5.4 SSW 41 50 22 27 1008.8 1008.7 0.0
14/02:30pm 27.3 22.3 16.1 50 6.9 SSW 37 50 20 27 1008.7 1008.6 0.0
14/02:15pm 27.0 22.1 16.3 52 6.6 SSW 37 56 20 30 1008.8 1008.7 0.0
14/02:00pm 26.6 22.5 16.4 53 6.3 SSW 33 46 18 25 1008.8 1008.7 0.0
14/01:30pm 27.3 23.3 16.7 52 6.6 SSW 33 44 18 24 1008.6 1008.5 0.0
14/01:00pm 27.9 24.0 16.5 50 7.1 SSW 32 43 17 23 1008.6 1008.5 0.0
14/12:30pm 27.7 24.2 16.4 50 7.0 SW 30 41 16 22 1008.7 1008.6 0.0
14/12:00pm 26.8 23.8 16.7 54 6.3 SSW 28 41 15 22 1008.8 1008.7 0.0
14/11:30am 25.4 23.1 16.7 58 5.4 SSW 24 35 13 19 1008.9 1008.8 0.0
14/11:00am 24.0 22.1 16.7 63 4.5 SSW 22 32 12 17 1009.2 1009.1 0.0
14/10:30am 23.1 20.9 16.8 67 3.9 SW 24 32 13 17 1009.3 1009.2 0.0
14/10:01am 21.9 20.1 17.0 73 3.0 SSW 22 30 12 16 1009.3 1009.2 0.0
14/10:00am 21.6 19.8 16.9 74 2.9 SSW 22 30 12 16 1009.3 1009.2 0.0
14/09:30am 20.2 17.5 16.7 80 2.1 SW 26 32 14 17 1009.4 1009.3 0.0

Other formats

Comma delimited format used in spreadsheet applications
http://www.bom.gov.au/fwo/IDS60801/IDS60801.95818.axf

JavaScript Object Notation format (JSON) in row-major order
http://www.bom.gov.au/fwo/IDS60801/IDS60801.95818.json

Data quality

Most of these data are generated automatically and are frequently updated. Quality checks on data are not normally performed. It is possible for incorrect values to appear. Refer to information at About Latest Weather Observations and please check the disclaimer before using these data.